.
WxDataArchive / Data Records for 2016-02-19
2016-02-18 February 2016 2016-02-20

Data Records for Friday, 19 February 2016

Time	Temp	Chill	HIndex	Humid	Dewpt	 Wind 	HiWind	WindDir	Rain 	Barom
-----	----	-----	------	-----	-----	------	------	-------	-----	-----
00:00	36.2	36.2	36.2	66	26.0	1	4	135	0.00	30.156 
00:05	36.0	36.0	36.0	66	25.8	1	5	112	0.00	30.156 
00:10	36.0	36.0	36.0	66	25.8	1	7	90	0.00	30.156 
00:15	35.9	35.9	35.9	67	26.0	0	2	68	0.00	30.148 
00:20	35.8	35.8	35.8	67	25.9	1	3	90	0.00	30.148 
00:25	35.8	35.8	35.8	68	26.3	1	4	112	0.00	30.148 
00:30	35.6	35.6	35.6	68	26.1	0	2	90	0.00	30.141 
00:35	35.5	35.5	35.5	69	26.4	1	3	90	0.00	30.141 
00:40	35.5	35.5	35.5	69	26.4	1	3	90	0.00	30.141 
00:45	35.3	35.3	35.3	70	26.5	0	3	90	0.00	30.136 
00:50	35.2	35.2	35.2	70	26.4	1	4	90	0.00	30.136 
00:55	35.2	35.2	35.2	70	26.4	1	3	90	0.00	30.136 
01:00	35.2	35.2	35.2	70	26.4	0	2	90	0.00	30.126 
01:05	35.2	35.2	35.2	71	26.8	0	2	90	0.00	30.126 
01:10	35.2	35.2	35.2	71	26.8	1	6	90	0.00	30.126 
01:15	35.2	35.2	35.2	71	26.8	1	3	112	0.00	30.110 
01:20	35.3	35.3	35.3	71	26.9	1	2	112	0.00	30.110 
01:25	35.5	35.5	35.5	71	27.0	1	6	112	0.00	30.110 
01:30	35.5	35.5	35.5	71	27.0	1	4	135	0.00	30.094 
01:35	35.5	35.5	35.5	71	27.0	1	4	90	0.00	30.094 
01:40	35.6	35.6	35.6	71	27.1	1	3	135	0.00	30.094 
01:45	35.6	35.6	35.6	71	27.1	1	3	90	0.00	30.089 
01:50	35.8	35.8	35.8	71	27.3	0	2	112	0.00	30.089 
01:55	35.8	35.8	35.8	71	27.3	1	3	90	0.00	30.089 
02:00	35.9	35.9	35.9	71	27.4	1	4	112	0.00	30.077 
02:05	36.0	36.0	36.0	71	27.5	1	3	90	0.00	30.077 
02:10	36.0	36.0	36.0	71	27.5	1	4	112	0.00	30.077 
02:15	36.2	36.2	36.2	72	28.1	1	3	112	0.00	30.062 
02:20	36.2	36.2	36.2	71	27.7	1	3	112	0.00	30.062 
02:25	36.3	36.3	36.3	71	27.8	1	6	112	0.00	30.062 
02:30	36.6	36.6	36.6	71	28.1	2	5	112	0.00	30.047 
02:35	37.0	37.0	37.0	70	28.1	2	5	90	0.00	30.047 
02:40	37.2	37.2	37.2	69	28.0	2	7	112	0.00	30.047 
02:45	37.5	37.5	37.5	69	28.3	2	4	90	0.00	30.031 
02:50	37.6	37.6	37.6	68	28.0	1	4	90	0.00	30.031 
02:55	37.8	37.8	37.8	68	28.2	2	6	90	0.00	30.031 
03:00	37.9	37.9	37.9	68	28.3	1	5	112	0.00	30.027 
03:05	38.2	38.2	38.2	68	28.6	2	7	112	0.00	30.027 
03:10	38.5	38.5	38.5	67	28.5	2	7	112	0.00	30.027 
03:15	38.6	38.6	38.6	67	28.6	2	5	112	0.00	30.019 
03:20	38.8	38.8	38.8	66	28.4	2	8	90	0.00	30.019 
03:25	38.9	38.9	38.9	66	28.5	3	9	112	0.00	30.019 
03:30	39.1	39.1	39.1	66	28.7	2	6	112	0.00	30.005 
03:35	39.1	39.1	39.1	66	28.7	2	10	112	0.00	30.005 
03:40	39.2	39.2	39.2	66	28.8	2	7	112	0.00	30.005 
03:45	39.2	39.2	39.2	66	28.8	3	7	90	0.00	29.996 
03:50	39.2	39.2	39.2	65	28.4	2	7	90	0.00	29.996 
03:55	39.3	39.3	39.3	65	28.5	3	7	112	0.00	29.996 
04:00	39.3	39.3	39.3	65	28.5	3	6	112	0.00	29.984 
04:05	39.3	39.3	39.3	66	28.9	3	6	112	0.00	29.984 
04:10	39.3	39.3	39.3	66	28.9	2	9	90	0.00	29.984 
04:15	39.3	39.3	39.3	66	28.9	2	6	112	0.00	29.978 
04:20	39.3	39.3	39.3	66	28.9	2	5	90	0.00	29.978 
04:25	39.3	39.3	39.3	66	28.9	2	5	90	0.00	29.978 
04:30	39.3	39.3	39.3	66	28.9	2	5	112	0.00	29.969 
04:35	39.5	39.5	39.5	66	29.1	2	7	112	0.00	29.969 
04:40	39.6	39.6	39.6	65	28.8	1	4	112	0.00	29.969 
04:45	39.8	39.8	39.8	65	29.0	2	5	112	0.00	29.962 
04:50	39.9	39.9	39.9	65	29.1	1	4	90	0.00	29.962 
04:55	40.1	40.1	40.1	65	29.3	2	4	90	0.00	29.962 
05:00	40.2	40.2	40.2	64	29.0	3	10	90	0.00	29.952 
05:05	40.5	40.5	40.5	64	29.3	2	5	90	0.00	29.952 
05:10	40.6	40.6	40.6	64	29.4	2	6	112	0.00	29.952 
05:15	40.6	40.6	40.6	64	29.4	2	6	135	0.00	29.932 
05:20	40.6	40.6	40.6	64	29.4	2	5	90	0.00	29.932 
05:25	40.8	40.8	40.8	64	29.6	2	5	90	0.00	29.932 
05:30	40.9	40.9	40.9	64	29.7	2	10	68	0.00	29.923 
05:35	41.1	41.1	41.1	64	29.9	2	5	68	0.00	29.923 
05:40	41.1	41.1	41.1	63	29.5	2	6	90	0.00	29.923 
05:45	41.3	41.3	41.3	63	29.7	2	7	112	0.00	29.923 
05:50	41.5	41.5	41.5	63	29.9	2	6	112	0.00	29.923 
05:55	41.6	41.6	41.6	63	30.0	2	11	112	0.00	29.923 
06:00	41.6	41.6	41.6	63	30.0	3	10	90	0.00	29.915 
06:05	41.8	41.8	41.8	62	29.7	3	7	90	0.00	29.915 
06:10	41.9	41.9	41.9	62	29.8	2	6	112	0.00	29.915 
06:15	42.1	42.1	42.1	62	30.0	3	9	112	0.00	29.914 
06:20	42.2	42.2	42.2	62	30.1	2	6	112	0.00	29.914 
06:25	42.3	42.3	42.3	62	30.2	1	6	90	0.00	29.914 
06:30	42.3	42.3	42.3	62	30.2	2	7	90	0.00	29.917 
06:35	42.5	42.5	42.5	62	30.4	2	6	90	0.00	29.917 
06:40	42.6	42.6	42.6	61	30.1	3	7	112	0.00	29.917 
06:45	42.8	42.8	42.8	61	30.3	2	5	90	0.00	29.898 
06:50	42.8	42.8	42.8	61	30.3	3	7	135	0.00	29.898 
06:55	42.9	42.9	42.9	61	30.4	2	6	90	0.00	29.898 
07:00	42.9	42.9	42.9	61	30.4	2	6	90	0.00	29.891 
07:05	43.1	43.1	43.1	61	30.6	2	6	90	0.00	29.891 
07:10	43.1	43.1	43.1	61	30.6	2	5	90	0.00	29.891 
07:15	43.1	43.1	43.1	61	30.6	2	5	112	0.00	29.890 
07:20	43.1	43.1	43.1	61	30.6	2	6	90	0.00	29.890 
07:25	43.1	43.1	43.1	61	30.6	1	4	90	0.00	29.890 
07:30	43.1	43.1	43.1	61	30.6	2	5	135	0.00	29.885 
07:35	43.2	43.2	43.2	62	31.1	2	4	90	0.00	29.885 
07:40	43.3	43.3	43.3	62	31.2	1	7	90	0.00	29.885 
07:45	43.5	43.5	43.5	61	31.0	2	5	90	0.00	29.881 
07:50	43.8	43.8	43.8	61	31.2	1	5	68	0.00	29.881 
07:55	44.1	44.1	44.1	60	31.1	2	6	90	0.00	29.881 
08:00	44.2	44.2	44.2	60	31.2	2	5	90	0.00	29.868 
08:05	44.5	44.5	44.5	60	31.5	2	7	90	0.00	29.868 
08:10	44.8	44.8	44.8	59	31.4	2	7	68	0.00	29.868 
08:15	45.1	45.1	45.1	59	31.6	3	10	112	0.00	29.857 
08:20	45.2	45.2	45.2	59	31.7	2	7	90	0.00	29.857 
08:25	45.2	45.2	45.2	59	31.7	2	5	90	0.00	29.857 
08:30	45.4	45.4	45.4	59	31.9	2	6	90	0.00	29.853 
08:35	45.5	45.5	45.5	59	32.0	2	6	90	0.00	29.853 
08:40	45.7	45.7	45.7	59	32.2	2	7	90	0.00	29.853 
08:45	45.7	45.7	45.7	59	32.2	2	6	90	0.00	29.852 
08:50	45.7	45.7	45.7	59	32.2	2	9	112	0.00	29.852 
08:55	45.8	45.8	45.8	58	31.9	3	8	112	0.00	29.852 
09:00	46.0	46.0	46.0	59	32.5	2	5	90	0.00	29.836 
09:05	46.1	46.1	46.1	59	32.6	2	6	90	0.00	29.836 
09:10	46.2	46.2	46.2	58	32.2	3	7	90	0.00	29.836 
09:15	46.4	46.4	46.4	58	32.4	2	6	90	0.00	29.831 
09:20	46.5	46.5	46.5	59	33.0	2	5	68	0.00	29.831 
09:25	46.7	46.7	46.7	59	33.1	2	5	68	0.00	29.831 
09:30	46.8	46.8	46.8	59	33.2	1	6	68	0.00	29.818 
09:35	47.1	47.1	47.1	59	33.5	1	3	68	0.00	29.818 
09:40	47.4	47.4	47.4	58	33.4	1	6	45	0.00	29.818 
09:45	47.9	47.9	47.9	58	33.8	2	9	68	0.00	29.805 
09:50	48.6	48.6	48.6	57	34.1	2	6	68	0.00	29.805 
09:55	49.4	49.4	49.4	55	33.9	2	6	68	0.00	29.805 
10:00	50.1	50.1	50.1	55	34.6	2	5	90	0.00	29.790 
10:05	50.7	50.7	50.7	53	34.2	3	9	45	0.00	29.790 
10:10	51.3	51.3	51.3	53	34.8	2	7	45	0.00	29.790 
10:15	51.7	51.7	51.7	52	34.6	3	10	22	0.00	29.773 
10:20	52.2	52.2	52.2	51	34.6	2	11	248	0.00	29.773 
10:25	52.2	52.2	52.2	51	34.6	2	9	248	0.00	29.773 
10:30	52.2	52.2	52.2	51	34.6	3	10	248	0.00	29.765 
10:35	52.3	52.3	52.3	52	35.2	3	9	270	0.00	29.765 
10:40	52.8	52.8	52.8	52	35.7	3	9	248	0.00	29.765 
10:45	53.2	53.2	53.2	51	35.5	3	10	270	0.00	29.752 
10:50	53.6	53.6	53.6	50	35.4	2	10	248	0.00	29.752 
10:55	54.2	54.2	54.2	50	36.0	2	6	270	0.00	29.752 
11:00	54.8	54.8	54.8	50	36.5	2	6	270	0.00	29.735 
11:05	55.3	55.3	55.3	48	35.9	2	7	270	0.00	29.735 
11:10	55.6	55.6	55.6	48	36.2	2	5	270	0.00	29.735 
11:15	55.9	55.9	55.9	46	35.4	3	11	248	0.00	29.728 
11:20	56.3	56.3	56.3	47	36.3	2	11	225	0.00	29.728 
11:25	56.6	56.6	56.6	46	36.1	4	12	248	0.00	29.728 
11:30	56.7	56.7	56.7	46	36.2	4	13	248	0.00	29.718 
11:35	56.9	56.9	56.9	45	35.8	4	13	248	0.00	29.718 
11:40	57.0	57.0	57.0	46	36.4	3	9	248	0.00	29.718 
11:45	57.3	57.3	57.3	45	36.1	5	14	248	0.00	29.708 
11:50	57.6	57.6	57.6	45	36.4	2	7	248	0.00	29.708 
11:55	58.0	58.0	58.0	44	36.2	5	17	248	0.00	29.708 
12:00	58.3	58.3	58.3	45	37.1	3	8	248	0.00	29.697 
12:05	58.6	58.6	58.6	44	36.8	4	16	270	0.00	29.697 
12:10	58.7	58.7	58.7	45	37.4	3	11	248	0.00	29.697 
12:15	59.0	59.0	59.0	44	37.1	4	11	248	0.00	29.680 
12:20	59.3	59.3	59.3	43	36.8	4	11	248	0.00	29.680 
12:25	59.6	59.6	59.6	43	37.1	4	14	248	0.00	29.680 
12:30	59.9	59.9	59.9	43	37.3	5	13	248	0.00	29.666 
12:35	60.1	60.1	60.1	44	38.1	4	11	248	0.00	29.666 
12:40	60.2	60.2	60.2	43	37.6	4	13	248	0.00	29.666 
12:45	60.7	60.7	60.7	43	38.1	3	10	248	0.00	29.657 
12:50	60.7	60.7	60.7	43	38.1	4	12	248	0.00	29.657 
12:55	60.9	60.9	60.9	44	38.8	5	14	248	0.00	29.657 
13:00	61.0	61.0	61.0	44	38.9	4	10	248	0.00	29.646 
13:05	61.0	61.0	61.0	44	38.9	6	15	248	0.00	29.646 
13:10	61.5	61.5	61.5	44	39.4	4	11	248	0.00	29.646 
13:15	61.8	61.8	61.8	44	39.7	4	14	248	0.00	29.631 
13:20	61.8	61.8	61.8	44	39.7	5	17	248	0.00	29.631 
13:25	61.6	61.6	61.6	44	39.5	5	13	248	0.00	29.631 
13:30	61.5	61.5	61.5	44	39.4	4	12	248	0.00	29.623 
13:35	61.5	61.5	61.5	45	40.0	5	16	248	0.00	29.623 
13:40	61.3	61.3	61.3	45	39.8	7	18	248	0.00	29.623 
13:45	61.2	61.2	61.2	45	39.7	6	18	248	0.00	29.628 
13:50	61.2	61.2	61.2	45	39.7	6	19	248	0.00	29.628 
13:55	61.2	61.2	61.2	45	39.7	6	19	248	0.00	29.628 
14:00	61.3	61.3	61.3	45	39.8	5	19	248	0.00	29.616 
14:05	61.2	61.2	61.2	45	39.7	6	15	248	0.00	29.616 
14:10	61.2	61.2	61.2	46	40.3	6	16	248	0.00	29.616 
14:15	61.0	61.0	61.0	46	40.1	5	12	248	0.00	29.618 
14:20	60.9	60.9	60.9	47	40.5	6	17	248	0.00	29.618 
14:25	60.7	60.7	60.7	47	40.3	5	17	248	0.00	29.618 
14:30	60.7	60.7	60.7	47	40.3	5	11	248	0.00	29.612 
14:35	60.5	60.5	60.5	48	40.7	4	11	248	0.00	29.612 
14:40	60.2	60.2	60.2	48	40.4	4	11	248	0.00	29.612 
14:45	59.9	59.9	59.9	49	40.7	5	16	248	0.00	29.613 
14:50	59.8	59.8	59.8	50	41.1	4	11	248	0.00	29.613 
14:55	59.8	59.8	59.8	50	41.1	6	19	248	0.00	29.613 
15:00	59.8	59.8	59.8	51	41.6	5	19	248	0.00	29.612 
15:05	59.8	59.8	59.8	51	41.6	4	14	248	0.00	29.612 
15:10	59.9	59.9	59.9	51	41.7	5	15	248	0.00	29.612 
15:15	59.9	59.9	59.9	51	41.7	5	17	248	0.00	29.613 
15:20	59.8	59.8	59.8	52	42.1	6	15	248	0.00	29.613 
15:25	59.6	59.6	59.6	53	42.4	5	14	248	0.00	29.613 
15:30	59.5	59.5	59.5	54	42.8	4	15	248	0.00	29.612 
15:35	59.8	59.8	59.8	54	43.1	4	12	248	0.00	29.612 
15:40	59.8	59.8	59.8	54	43.1	6	19	248	0.00	29.612 
15:45	59.8	59.8	59.8	55	43.6	5	14	248	0.00	29.612 
15:50	59.8	59.8	59.8	56	44.1	4	11	248	0.00	29.612 
15:55	59.6	59.6	59.6	57	44.3	3	13	248	0.00	29.612 
16:00	59.6	59.6	59.6	57	44.3	3	12	248	0.00	29.614 
16:05	59.6	59.6	59.6	57	44.3	4	14	248	0.00	29.614 
16:10	59.8	59.8	59.8	58	45.0	4	15	248	0.00	29.614 
16:15	59.8	59.8	59.8	58	45.0	3	10	248	0.00	29.611 
16:20	59.8	59.8	59.8	58	45.0	6	15	248	0.00	29.611 
16:25	59.8	59.8	59.8	59	45.4	3	6	248	0.00	29.611 
16:30	59.9	59.9	59.9	59	45.5	5	11	248	0.00	29.600 
16:35	59.9	59.9	59.9	59	45.5	4	12	248	0.00	29.600 
16:40	59.8	59.8	59.8	60	45.9	3	11	248	0.00	29.600 
16:45	59.9	59.9	59.9	60	46.0	4	11	248	0.00	29.598 
16:50	59.9	59.9	59.9	60	46.0	3	11	248	0.00	29.598 
16:55	60.1	60.1	60.1	60	46.2	5	12	248	0.00	29.598 
17:00	60.2	60.2	60.2	59	45.8	4	9	248	0.00	29.612 
17:05	60.1	60.1	60.1	59	45.7	7	16	248	0.00	29.612 
17:10	60.1	60.1	60.1	59	45.7	4	12	248	0.00	29.612 
17:15	59.8	59.8	59.8	58	45.0	4	11	248	0.00	29.611 
17:20	59.8	59.8	59.8	58	45.0	4	10	248	0.00	29.611 
17:25	59.6	59.6	59.6	58	44.8	4	12	248	0.00	29.611 
17:30	59.6	59.6	59.6	58	44.8	5	11	248	0.00	29.620 
17:35	59.6	59.6	59.6	58	44.8	5	14	248	0.00	29.620 
17:40	59.8	59.8	59.8	57	44.5	6	19	248	0.00	29.620 
17:45	59.9	59.9	59.9	54	43.2	6	12	270	0.00	29.644 
17:50	59.8	59.8	59.8	47	39.5	8	20	270	0.00	29.644 
17:55	59.6	59.6	59.6	46	38.8	7	18	270	0.00	29.644 
18:00	59.3	59.3	59.3	45	38.0	6	12	248	0.00	29.657 
18:05	58.9	58.9	58.9	46	38.2	5	11	270	0.00	29.657 
18:10	58.7	58.7	58.7	46	38.0	5	11	270	0.00	29.657 
18:15	58.4	58.4	58.4	47	38.2	4	11	270	0.00	29.660 
18:20	58.1	58.1	58.1	47	38.0	4	11	248	0.00	29.660 
18:25	58.0	58.0	58.0	48	38.4	5	10	248	0.00	29.660 
18:30	58.0	58.0	58.0	48	38.4	5	12	248	0.00	29.674 
18:35	57.8	57.8	57.8	49	38.8	3	10	248	0.00	29.674 
18:40	57.6	57.6	57.6	49	38.6	4	10	248	0.00	29.674 
18:45	57.5	57.5	57.5	50	39.0	3	7	248	0.00	29.691 
18:50	57.3	57.3	57.3	50	38.8	3	8	248	0.00	29.691 
18:55	57.0	57.0	57.0	51	39.1	4	7	248	0.00	29.691 
19:00	57.0	57.0	57.0	51	39.1	4	8	248	0.00	29.697 
19:05	56.9	56.9	56.9	51	39.0	4	9	248	0.00	29.697 
19:10	56.7	56.7	56.7	51	38.8	3	9	248	0.00	29.697 
19:15	56.6	56.6	56.6	51	38.7	3	11	248	0.00	29.706 
19:20	56.6	56.6	56.6	51	38.7	3	6	248	0.00	29.706 
19:25	56.6	56.6	56.6	50	38.2	3	10	248	0.00	29.706 
19:30	56.7	56.7	56.7	49	37.8	4	12	248	0.00	29.704 
19:35	56.7	56.7	56.7	48	37.2	4	12	248	0.00	29.704 
19:40	56.9	56.9	56.9	47	36.9	5	13	248	0.00	29.704 
19:45	57.0	57.0	57.0	46	36.4	5	12	248	0.00	29.714 
19:50	57.2	57.2	57.2	46	36.6	5	13	248	0.00	29.714 
19:55	57.0	57.0	57.0	45	35.9	6	12	248	0.00	29.714 
20:00	57.0	57.0	57.0	45	35.9	5	13	248	0.00	29.707 
20:05	56.9	56.9	56.9	45	35.8	5	13	248	0.00	29.707 
20:10	56.9	56.9	56.9	44	35.2	6	14	248	0.00	29.707 
20:15	56.9	56.9	56.9	43	34.6	5	12	248	0.00	29.707 
20:20	56.9	56.9	56.9	43	34.6	6	13	248	0.00	29.707 
20:25	56.9	56.9	56.9	43	34.6	7	16	248	0.00	29.707 
20:30	56.6	56.6	56.6	43	34.4	6	14	248	0.00	29.699 
20:35	56.6	56.6	56.6	43	34.4	6	16	270	0.00	29.699 
20:40	56.6	56.6	56.6	42	33.8	6	19	248	0.00	29.699 
20:45	56.6	56.6	56.6	42	33.8	7	15	270	0.00	29.713 
20:50	56.6	56.6	56.6	43	34.4	6	13	248	0.00	29.713 
20:55	56.5	56.5	56.5	43	34.3	6	19	248	0.00	29.713 
21:00	56.3	56.3	56.3	44	34.7	5	15	248	0.00	29.722 
21:05	56.0	56.0	56.0	44	34.4	5	14	248	0.00	29.722 
21:10	55.7	55.7	55.7	45	34.7	5	9	248	0.00	29.722 
21:15	55.4	55.4	55.4	46	35.0	4	10	248	0.00	29.733 
21:20	55.1	55.1	55.1	46	34.7	6	15	248	0.00	29.733 
21:25	55.0	55.0	55.0	47	35.1	6	13	270	0.00	29.733 
21:30	54.7	54.7	54.7	47	34.9	5	13	248	0.00	29.751 
21:35	54.5	54.5	54.5	48	35.2	5	13	248	0.00	29.751 
21:40	54.2	54.2	54.2	48	34.9	6	12	270	0.00	29.751 
21:45	53.9	53.9	53.9	49	35.2	6	14	248	0.00	29.767 
21:50	53.6	53.6	53.6	49	34.9	5	9	270	0.00	29.767 
21:55	53.3	53.3	53.3	50	35.1	5	13	270	0.00	29.767 
22:00	52.9	52.9	52.9	50	34.8	4	9	270	0.00	29.784 
22:05	52.8	52.8	52.8	50	34.7	5	10	270	0.00	29.784 
22:10	52.6	52.6	52.6	51	35.0	5	11	248	0.00	29.784 
22:15	52.5	52.5	52.5	51	34.9	6	14	248	0.00	29.794 
22:20	52.2	52.2	52.2	52	35.1	5	12	270	0.00	29.794 
22:25	51.9	51.9	51.9	53	35.3	4	10	270	0.00	29.794 
22:30	51.6	51.6	51.6	53	35.0	4	10	248	0.00	29.800 
22:35	51.3	51.3	51.3	53	34.8	4	9	270	0.00	29.800 
22:40	51.0	51.0	51.0	53	34.5	3	6	248	0.00	29.800 
22:45	50.8	50.8	50.8	54	34.8	3	9	248	0.00	29.812 
22:50	50.7	50.7	50.7	54	34.7	4	11	248	0.00	29.812 
22:55	50.5	50.5	50.5	54	34.5	4	9	248	0.00	29.812 
23:00	50.4	50.4	50.4	54	34.4	4	10	248	0.00	29.819 
23:05	50.1	50.1	50.1	54	34.1	3	7	270	0.00	29.819 
23:10	49.9	49.9	49.9	54	33.9	3	7	248	0.00	29.819 
23:15	49.8	48.6	49.8	53	33.4	4	10	270	0.00	29.819 
23:20	49.9	48.8	49.9	52	33.0	4	7	248	0.00	29.819 
23:25	50.1	50.1	50.1	52	33.2	4	7	248	0.00	29.819 
23:30	50.1	50.1	50.1	51	32.7	4	10	270	0.00	29.827 
23:35	50.1	50.1	50.1	51	32.7	3	6	270	0.00	29.827 
23:40	49.8	49.8	49.8	51	32.4	3	8	270	0.00	29.827 
23:45	49.8	49.8	49.8	50	31.9	3	6	270	0.00	29.834 
23:50	49.9	49.9	49.9	50	32.0	3	7	270	0.00	29.834 
23:55	49.9	49.9	49.9	50	32.0	3	7	270	0.00	29.834 

CoCoRaHS
IN-AL-39
A2 Web Hosting
Creative Commons License
GoDaddy
search engine by freefind advanced

loaded 2018-11-13 22:38:46 • last modified 2010-11-18 10:43:29
Privacy PolicyDisclaimer
• wx.awcolley.com is powered by PmWiki v.2002016 •
• all content (unless otherwise noted) © 2018 A W Colley